Map

Track Data

SID SEASON NUMBER BASIN SUBBASIN NAME ISO_TIME NATURE LAT LON WMO_WIND WMO_PRES WMO_AGENCY TRACK_TYPE DIST2LAND LANDFALL IFLAG USA_AGENCY USA_ATCF_ID USA_LAT USA_LON USA_RECORD USA_STATUS USA_WIND USA_PRES USA_SSHS USA_R34_NE USA_R34_SE USA_R34_SW USA_R34_NW USA_R50_NE USA_R50_SE USA_R50_SW USA_R50_NW USA_R64_NE USA_R64_SE USA_R64_SW USA_R64_NW USA_POCI USA_ROCI USA_RMW USA_EYE TOKYO_LAT TOKYO_LON TOKYO_GRADE TOKYO_WIND TOKYO_PRES TOKYO_R50_DIR TOKYO_R50_LONG TOKYO_R50_SHORT TOKYO_R30_DIR TOKYO_R30_LONG TOKYO_R30_SHORT TOKYO_LAND CMA_LAT CMA_LON CMA_CAT CMA_WIND CMA_PRES HKO_LAT HKO_LON HKO_CAT HKO_WIND HKO_PRES NEWDELHI_LAT NEWDELHI_LON NEWDELHI_GRADE NEWDELHI_WIND NEWDELHI_PRES NEWDELHI_CI NEWDELHI_DP NEWDELHI_POCI REUNION_LAT REUNION_LON REUNION_TYPE REUNION_WIND REUNION_PRES REUNION_TNUM REUNION_CI REUNION_RMW REUNION_R34_NE REUNION_R34_SE REUNION_R34_SW REUNION_R34_NW REUNION_R50_NE REUNION_R50_SE REUNION_R50_SW REUNION_R50_NW REUNION_R64_NE REUNION_R64_SE REUNION_R64_SW REUNION_R64_NW BOM_LAT BOM_LON BOM_TYPE BOM_WIND BOM_PRES BOM_TNUM BOM_CI BOM_RMW BOM_R34_NE BOM_R34_SE BOM_R34_SW BOM_R34_NW BOM_R50_NE BOM_R50_SE BOM_R50_SW BOM_R50_NW BOM_R64_NE BOM_R64_SE BOM_R64_SW BOM_R64_NW BOM_ROCI BOM_POCI BOM_EYE BOM_POS_METHOD BOM_PRES_METHOD NADI_LAT NADI_LON NADI_CAT NADI_WIND NADI_PRES WELLINGTON_LAT WELLINGTON_LON WELLINGTON_WIND WELLINGTON_PRES DS824_LAT DS824_LON DS824_STAGE DS824_WIND DS824_PRES TD9636_LAT TD9636_LON TD9636_STAGE TD9636_WIND TD9636_PRES TD9635_LAT TD9635_LON TD9635_WIND TD9635_PRES TD9635_ROCI NEUMANN_LAT NEUMANN_LON NEUMANN_CLASS NEUMANN_WIND NEUMANN_PRES MLC_LAT MLC_LON MLC_CLASS MLC_WIND MLC_PRES USA_GUST BOM_GUST BOM_GUST_PER REUNION_GUST REUNION_GUST_PER USA_SEAHGT USA_SEARAD_NE USA_SEARAD_SE USA_SEARAD_SW USA_SEARAD_NW STORM_SPEED STORM_DIR
1996093S16074 1996 29 SI MM HANSELLA 1996-04-02 00:00:00 TS -16.3000 74.2667 20 1004 reunion main 1797 1767 O____O______O_ jtwc_sh SH241996 -16.9000 74.5000 20 -1 -15.1000 73.8000 2 20 1004 2.00000 2.00000 -16.9000 74.5000 TC 20 6 267
1996093S16074 1996 29 SI MM HANSELLA 1996-04-02 03:00:00 TS -16.3177 73.9608 main 1767 1736 P____P______P_ SH241996 -16.8002 74.0874 22 -1 -15.3526 73.7075 2 22 1003 -16.8002 74.0874 TC 22 6 267
1996093S16074 1996 29 SI MM HANSELLA 1996-04-02 06:00:00 TS -16.3333 73.6667 24 1002 reunion main 1736 1705 O____O______O_ jtwc_sh SH241996 -16.7000 73.7000 25 -1 -15.6000 73.6000 2 24 1002 2.00000 2.00000 -16.7000 73.7000 TC 25 6 267
1996093S16074 1996 29 SI MM HANSELLA 1996-04-02 09:00:00 TS -16.3432 73.3842 main 1705 1675 P____P______P_ SH241996 -16.5999 73.3501 25 -1 -15.8299 73.4525 2 24 1002 -16.5999 73.3501 TC 25 6 270
1996093S16074 1996 29 SI MM HANSELLA 1996-04-02 12:00:00 TS -16.3333 73.0667 24 1002 reunion main 1675 1634 O____O______O_ jtwc_sh SH241996 -16.5000 73.0000 25 -1 -16.0000 73.2000 2 24 1002 2.00000 2.00000 -16.5000 73.0000 TC 25 7 274
1996093S16074 1996 29 SI MM HANSELLA 1996-04-02 15:00:00 TS -16.2933 72.6775 main 1634 1597 P____P______P_ SH241996 -16.3999 72.6150 27 -1 -16.0800 72.8025 2 24 1002 -16.3999 72.6150 TC 27 8 277
1996093S16074 1996 29 SI MM HANSELLA 1996-04-02 18:00:00 TS -16.2333 72.2333 24 1002 reunion main 1587 1547 O____O______O_ jtwc_sh SH241996 -16.3000 72.2000 30 -1 -16.1000 72.3000 2 24 1002 2.00000 2.00000 -16.3000 72.2000 TC 30 9 278
1996093S16074 1996 29 SI MM HANSELLA 1996-04-02 21:00:00 TS -16.1691 71.7575 main 1547 1500 P____P______P_ SH241996 -16.1999 71.7575 32 -1 -16.1075 71.7574 2 25 1001 -16.1999 71.7575 TC 32 9 278
1996093S16074 1996 29 SI MM HANSELLA 1996-04-03 00:00:00 TS -16.1000 71.2667 26 1000 reunion main 1500 1454 O____O______O_ jtwc_sh SH241996 -16.1000 71.3000 35 0 -16.1000 71.2000 2 26 1000 2.00000 2.00000 -16.1000 71.3000 TC 35 9 278
1996093S16074 1996 29 SI MM HANSELLA 1996-04-03 03:00:00 TS -16.0382 70.7951 main 1454 1415 P____P______P_ SH241996 -16.0000 70.8425 35 0 -16.1148 70.7001 2 26 1000 -16.0000 70.8425 TC 35 9 278
1996093S16074 1996 29 SI MM HANSELLA 1996-04-03 06:00:00 TS -15.9667 70.3333 26 1000 reunion main 1405 1369 O____O______O_ jtwc_sh SH241996 -15.9000 70.4000 35 0 -16.1000 70.2000 2 26 1000 2.00000 2.00000 -15.9000 70.4000 TC 35 9 281
1996093S16074 1996 29 SI MM HANSELLA 1996-04-03 09:00:00 TS -15.8665 69.8883 main 1369 1335 P____P______P_ SH241996 -15.7923 70.0000 35 0 -16.0149 69.6649 2 26 1000 -15.7923 70.0000 TC 35 9 283
1996093S16074 1996 29 SI MM HANSELLA 1996-04-03 12:00:00 TS -15.7667 69.4333 26 1000 reunion main 1325 1291 O____O______O_ jtwc_sh SH241996 -15.7000 69.6000 35 0 -15.9000 69.1000 2 26 1000 2.00000 2.00000 -15.7000 69.6000 TC 35 9 281
1996093S16074 1996 29 SI MM HANSELLA 1996-04-03 15:00:00 TS -15.6924 68.9459 main 1281 1247 P____P______P_ SH241996 -15.6424 69.1651 35 0 -15.7924 68.5075 2 26 1000 -15.6424 69.1651 TC 35 10 278
1996093S16074 1996 29 SI MM HANSELLA 1996-04-03 18:00:00 TS -15.6333 68.4333 26 1000 reunion main 1238 1190 O____O______O_ jtwc_sh SH241996 -15.6000 68.7000 35 0 -15.7000 67.9000 2 26 1000 2.00000 2.00000 -15.6000 68.7000 TC 35 10 277
1996093S16074 1996 29 SI MM HANSELLA 1996-04-03 21:00:00 TS -15.5658 67.8999 main 1190 1148 P____P______P_ SH241996 -15.5424 68.2150 37 0 -15.6126 67.2699 2 28 997 -15.5424 68.2150 TC 37 10 276
1996093S16074 1996 29 SI MM HANSELLA 1996-04-04 00:00:00 TS -15.5333 67.3667 30 995 reunion main 1148 1101 O____O______O_ jtwc_sh SH241996 -15.5000 67.7000 40 0 -15.6000 66.7000 2 30 995 2.50000 2.50000 -15.5000 67.7000 TC 40 10 271
1996093S16074 1996 29 SI MM HANSELLA 1996-04-04 03:00:00 TS -15.5458 66.8466 main 1092 1049 P____P______P_ SH241996 -15.4625 67.1423 42 0 -15.7123 66.2551 2 30 995 -15.4625 67.1423 TC 42 10 264
1996093S16074 1996 29 SI MM HANSELLA 1996-04-04 06:00:00 TS -15.6333 66.3667 30 995 reunion main 1049 1000 O____O______O_ jtwc_sh SH241996 -15.5000 66.6000 45 0 -15.9000 65.9000 2 30 995 2.50000 2.50000 -15.5000 66.6000 TC 45 9 254
1996093S16074 1996 29 SI MM HANSELLA 1996-04-04 09:00:00 TS -15.7957 65.9491 main 991 952 P____P______P_ SH241996 -15.6549 66.1275 47 0 -16.0774 65.5923 2 32 993 -15.6549 66.1275 TC 47 9 243
1996093S16074 1996 29 SI MM HANSELLA 1996-04-04 12:00:00 TS -16.0333 65.5667 35 992 reunion main 952 898 O____O______O_ jtwc_sh SH241996 -15.9000 65.7000 50 0 -16.3000 65.3000 3 35 992 3.00000 3.00000 -15.9000 65.7000 TC 50 9 235
1996093S16074 1996 29 SI MM HANSELLA 1996-04-04 15:00:00 TS -16.3183 65.1783 main 898 845 P____P______P_ SH241996 -16.1849 65.2924 52 0 -16.5850 64.9500 3 37 990 -16.1849 65.2924 TC 52 10 231
1996093S16074 1996 29 SI MM HANSELLA 1996-04-04 18:00:00 TS -16.6333 64.8000 40 988 reunion main 845 791 O____O______O_ jtwc_sh SH241996 -16.5000 64.9000 55 0 -16.9000 64.6000 3 40 988 3.50000 3.50000 -16.5000 64.9000 TC 55 10 230
1996093S16074 1996 29 SI MM HANSELLA 1996-04-04 21:00:00 TS -16.9459 64.4084 main 791 748 P____P______P_ SH241996 -16.8075 64.4775 57 0 -17.2225 64.2701 3 42 986 -16.8075 64.4775 TC 57 9 229
1996093S16074 1996 29 SI MM HANSELLA 1996-04-05 00:00:00 TS -17.2333 64.0667 45 984 reunion main 748 709 O____O______O_ jtwc_sh SH241996 -17.1000 64.1000 60 0 -17.5000 64.0000 3 45 984 3.50000 3.50000 -17.1000 64.1000 TC 60 8 228
1996093S16074 1996 29 SI MM HANSELLA 1996-04-05 03:00:00 TS -17.4549 63.8099 main 704 675 P____P______P_ SH241996 -17.3499 63.8049 62 0 -17.6649 63.8198 3 45 984 -17.3499 63.8049 TC 62 6 224
1996093S16074 1996 29 SI MM HANSELLA 1996-04-05 06:00:00 TS -17.6667 63.6333 45 984 reunion main 675 656 O____O______O_ jtwc_sh SH241996 -17.6000 63.6000 65 1 -17.8000 63.7000 3 45 984 3.50000 3.50000 -17.6000 63.6000 TC 65 5 212
1996093S16074 1996 29 SI MM HANSELLA 1996-04-05 09:00:00 TS -17.9183 63.5108 main 656 633 P____P______P_ SH241996 -17.8925 63.4699 67 1 -17.9700 63.5924 3 47 981 -17.8925 63.4699 TC 67 6 200
1996093S16074 1996 29 SI MM HANSELLA 1996-04-05 12:00:00 TS -18.2000 63.4333 50 978 reunion main 633 620 O____O______O_ jtwc_sh SH241996 -18.2000 63.4000 70 1 -18.2000 63.5000 3 50 978 4.00000 4.00000 -18.2000 63.4000 TC 70 6 195
1996093S16074 1996 29 SI MM HANSELLA 1996-04-05 15:00:00 TS -18.5117 63.3467 main 610 600 P____P______P_ SH241996 -18.5000 63.3275 75 1 -18.5350 63.3851 3 52 976 -18.5000 63.3275 TC 75 7 191
1996093S16074 1996 29 SI MM HANSELLA 1996-04-05 18:00:00 TS -18.8333 63.3000 55 975 reunion main 600 591 O____O______O_ jtwc_sh SH241996 -18.8000 63.3000 80 1 -18.9000 63.3000 3 55 975 4.00000 4.00000 -18.8000 63.3000 TC 80 6 184
1996093S16074 1996 29 SI MM HANSELLA 1996-04-05 21:00:00 TS -19.1433 63.3008 main 591 583 P____P______P_ SH241996 -19.1075 63.3200 85 2 -19.2150 63.2625 3 58 970 -19.1075 63.3200 TC 85 6 173
1996093S16074 1996 29 SI MM HANSELLA 1996-04-06 00:00:00 TS -19.4333 63.3667 62 965 reunion main 594 590 O____O______O_ jtwc_sh SH241996 -19.4000 63.4000 90 2 -19.5000 63.3000 3 62 965 4.50000 4.50000 -19.4000 63.4000 TC 90 6 162
1996093S16074 1996 29 SI MM HANSELLA 1996-04-06 03:00:00 TS -19.6958 63.4867 main 599 597 P____P______P_ SH241996 -19.6650 63.5275 92 2 -19.7574 63.4051 3 63 963 -19.6650 63.5275 TC 92 6 150
1996093S16074 1996 29 SI MM HANSELLA 1996-04-06 06:00:00 TS -19.9333 63.6667 65 962 reunion main 617 616 O____O______O_ jtwc_sh SH241996 -19.9000 63.7000 95 2 -20.0000 63.6000 4 65 962 5.00000 5.00000 -19.9000 63.7000 TC 95 6 141
1996093S16074 1996 29 SI MM HANSELLA 1996-04-06 09:00:00 TS -20.1750 63.8949 main 636 636 P____P______P_ SH241996 -20.1225 63.8925 95 2 -20.2801 63.8998 4 65 962 -20.1225 63.8925 TC 95 6 135
1996093S16074 1996 29 SI MM HANSELLA 1996-04-06 12:00:00 TS -20.3667 64.1333 65 962 reunion main 656 656 O____O______O_ jtwc_sh SH241996 -20.3000 64.1000 95 2 -20.5000 64.2000 4 65 962 5.00000 5.00000 -20.3000 64.1000 TC 95 5 125
1996093S16074 1996 29 SI MM HANSELLA 1996-04-06 15:00:00 TS -20.4725 64.3418 main 677 677 P____P______P_ SH241996 -20.4150 64.3150 95 2 -20.5874 64.3951 4 65 962 -20.4150 64.3150 TC 95 4 116
1996093S16074 1996 29 SI MM HANSELLA 1996-04-06 18:00:00 TS -20.5333 64.5000 65 962 reunion main 698 698 O____O______O_ jtwc_sh SH241996 -20.5000 64.5000 95 2 -20.6000 64.5000 4 65 962 5.00000 5.00000 -20.5000 64.5000 TC 95 3 123
1996093S16074 1996 29 SI MM HANSELLA 1996-04-06 21:00:00 TS -20.6150 64.5742 main 709 709 P____P______P_ SH241996 -20.6150 64.6150 95 2 -20.6149 64.4925 4 65 962 -20.6150 64.6150 TC 95 2 137
1996093S16074 1996 29 SI MM HANSELLA 1996-04-07 00:00:00 TS -20.6667 64.6333 65 962 reunion main 709 709 O____O______O_ jtwc_sh SH241996 -20.7000 64.7000 95 2 -20.6000 64.5000 4 65 962 5.00000 5.00000 -20.7000 64.7000 TC 95 2 106
1996093S16074 1996 29 SI MM HANSELLA 1996-04-07 03:00:00 TS -20.6625 64.7542 main 730 729 P____P______P_ SH241996 -20.7225 64.7925 95 2 -20.5426 64.6776 4 65 962 -20.7225 64.7925 TC 95 3 82
1996093S16074 1996 29 SI MM HANSELLA 1996-04-07 06:00:00 TS -20.6333 64.9000 65 962 reunion main 740 740 O____O______O_ jtwc_sh SH241996 -20.7000 64.9000 95 2 -20.5000 64.9000 4 65 962 4.50000 5.00000 -20.7000 64.9000 TC 95 3 82
1996093S16074 1996 29 SI MM HANSELLA 1996-04-07 09:00:00 TS -20.6217 65.0675 main 761 761 P____P______P_ SH241996 -20.6650 65.0650 95 2 -20.5350 65.0724 4 65 962 -20.6650 65.0650 TC 95 3 83
1996093S16074 1996 29 SI MM HANSELLA 1996-04-07 12:00:00 TS -20.6000 65.2000 65 962 reunion main 771 771 O____O______O_ jtwc_sh SH241996 -20.6000 65.2000 95 2 -20.6000 65.2000 4 65 962 4.00000 5.00000 -20.6000 65.2000 TC 95 2 71
1996093S16074 1996 29 SI MM HANSELLA 1996-04-07 15:00:00 TS -20.5600 65.2592 main 781 771 P____P______P_ SH241996 -20.5150 65.2450 95 2 -20.6500 65.2875 4 62 965 -20.5150 65.2450 TC 95 1 17
1996093S16074 1996 29 SI MM HANSELLA 1996-04-07 18:00:00 TS -20.5000 65.2333 60 968 reunion main 771 760 O____O______O_ jtwc_sh SH241996 -20.4000 65.2000 95 2 -20.7000 65.3000 3 60 968 4.00000 4.50000 -20.4000 65.2000 TC 95 2 322
1996093S16074 1996 29 SI MM HANSELLA 1996-04-07 21:00:00 TS -20.4141 65.1400 main 760 750 P____P______P_ SH241996 -20.2425 65.0874 92 2 -20.7575 65.2450 3 57 971 -20.2425 65.0874 TC 92 3 304
1996093S16074 1996 29 SI MM HANSELLA 1996-04-08 00:00:00 TS -20.3333 64.9667 55 975 reunion main 750 729 O____O______O_ jtwc_sh SH241996 -20.1000 64.9000 90 2 -20.8000 65.1000 3 55 975 3.50000 4.00000 -20.1000 64.9000 TC 90 4 289
1996093S16074 1996 29 SI MM HANSELLA 1996-04-08 03:00:00 TS -20.2850 64.7467 main 719 698 P____P______P_ SH241996 -20.0200 64.6725 85 2 -20.8149 64.8950 3 52 976 -20.0200 64.6725 TC 85 5 278
1996093S16074 1996 29 SI MM HANSELLA 1996-04-08 06:00:00 TS -20.2667 64.4667 50 978 reunion main 698 667 O____O______O_ jtwc_sh SH241996 -20.0000 64.4000 80 1 -20.8000 64.6000 3 50 978 2.50000 4.00000 -20.0000 64.4000 TC 80 5 271
1996093S16074 1996 29 SI MM HANSELLA 1996-04-08 09:00:00 TS -20.2757 64.1658 main 667 625 P____P______P_ SH241996 -20.0349 64.1300 75 1 -20.7574 64.2375 3 47 981 -20.0349 64.1300 TC 75 6 267
1996093S16074 1996 29 SI MM HANSELLA 1996-04-08 12:00:00 TS -20.3000 63.8000 45 984 reunion main 625 583 O____O______O_ jtwc_sh SH241996 -20.1000 63.8000 70 1 -20.7000 63.8000 3 45 984 2.00000 3.50000 -20.1000 63.8000 TC 70 8 267
1996093S16074 1996 29 SI MM HANSELLA 1996-04-08 15:00:00 TS -20.3116 63.3633 main 583 531 P____P______P_ SH241996 -20.1500 63.3800 65 1 -20.6348 63.3299 3 42 986 -20.1500 63.3800 TC 65 9 268
1996093S16074 1996 29 SI MM HANSELLA 1996-04-08 18:00:00 TS -20.3333 62.8667 40 988 reunion main 531 479 O____O______O_ jtwc_sh SH241996 -20.2000 62.9000 60 0 -20.6000 62.8000 3 40 988 2.00000 3.00000 -20.2000 62.9000 TC 60 10 266
1996093S16074 1996 29 SI MM HANSELLA 1996-04-08 21:00:00 TS -20.3757 62.3483 main 469 417 P____P______P_ SH241996 -20.2423 62.4224 57 0 -20.6426 62.2002 3 36 991 -20.2423 62.4224 TC 57 10 264
1996093S16074 1996 29 SI MM HANSELLA 1996-04-09 00:00:00 TS -20.4333 61.8000 32 994 reunion main 417 365 O____O______O_ jtwc_sh SH241996 -20.3000 61.9000 55 0 -20.7000 61.6000 2 32 994 2.00000 2.50000 -20.3000 61.9000 TC 55 10 263
1996093S16074 1996 29 SI MM HANSELLA 1996-04-09 03:00:00 TS -20.4998 61.2458 main 355 303 P____P______P_ SH241996 -20.3999 61.3226 52 0 -20.6996 61.0923 2 28 996 -20.3999 61.3226 TC 52 11 263
1996093S16074 1996 29 SI MM HANSELLA 1996-04-09 06:00:00 TS -20.5667 60.6667 25 998 reunion main 303 241 O____O______O_ jtwc_sh SH241996 -20.5000 60.7000 50 0 -20.7000 60.6000 2 25 998 2.00000 2.00000 -20.5000 60.7000 TC 50 11 264
1996093S16074 1996 29 SI MM HANSELLA 1996-04-09 09:00:00 TS -20.6163 60.0749 main 241 182 P____P______P_ SH241996 -20.5498 60.0648 45 0 -20.7495 60.0951 2 25 998 -20.5498 60.0648 TC 45 12 265
1996093S16074 1996 29 SI MM HANSELLA 1996-04-09 12:00:00 TS -20.6667 59.4333 25 998 reunion main 172 103 O____O______O_ jtwc_sh SH241996 -20.6000 59.4000 40 0 -20.8000 59.5000 2 25 998 2.00000 2.00000 -20.6000 59.4000 TC 40 13 265
1996093S16074 1996 29 SI MM HANSELLA 1996-04-09 15:00:00 TS -20.7359 58.7051 main 103 45 P____P______P_ SH241996 -20.7000 58.6926 37 0 -20.8077 58.7299 2 24 999 -20.7000 58.6926 TC 37 14 264
1996093S16074 1996 29 SI MM HANSELLA 1996-04-09 18:00:00 TS -20.8000 57.9667 24 1000 reunion main 45 33 O____O______O_ jtwc_sh SH241996 -20.8000 58.0000 35 0 -20.8000 57.9000 2 24 1000 2.00000 2.00000 -20.8000 58.0000 TC 35 13 265
1996093S16074 1996 29 SI MM HANSELLA 1996-04-09 21:00:00 TS -20.8558 57.2693 main 44 44 P____P______P_ SH241996 -20.8724 57.3550 32 -1 -20.8226 57.0978 2 24 1001 -20.8724 57.3550 TC 32 12 267
1996093S16074 1996 29 SI MM HANSELLA 1996-04-10 00:00:00 TS -20.8667 56.6667 24 1002 reunion main 76 53 O____O______O_ jtwc_sh SH241996 -20.9000 56.8000 30 -1 -20.8000 56.4000 2 24 1002 1.50000 2.00000 -20.9000 56.8000 TC 30 10 274
1996093S16074 1996 29 SI MM HANSELLA 1996-04-10 03:00:00 TS -20.7880 56.2048 main 53 38 P____P______P_ SH241996 -20.8572 56.3623 27 -1 -20.6496 55.8897 2 24 1003 -20.8572 56.3623 TC 27 8 281
1996093S16074 1996 29 SI MM HANSELLA 1996-04-10 06:00:00 TS -20.7182 55.8636 24 1004 reunion main 39 33 O____O______O_ jtwc_sh SH241996 -20.8000 56.0000 25 -1 -20.5000 55.5000 2 24 1004 1.50000 2.00000 -20.8000 56.0000 TC 25 6 276
1996093S16074 1996 29 SI MM HANSELLA 1996-04-10 09:00:00 TS -20.7205 55.5311 main 33 22 P____P______P_ SH241996 -20.7850 55.6275 25 -1 -20.4628 55.1452 2 22 1005 -20.7850 55.6275 TC 25 6 265
1996093S16074 1996 29 SI MM HANSELLA 1996-04-10 12:00:00 TS -20.7667 55.2444 20 1006 reunion main 24 24 O____O______O_ jtwc_sh SH241996 -20.8000 55.3000 25 -1 -20.5000 54.8000 6 20 1006 1.50000 1.50000 -20.8000 55.3000 TC 25 5 257
1996093S16074 1996 29 SI MM HANSELLA 1996-04-10 15:00:00 TS -20.8274 55.0349 main 38 38 P___________P_ SH241996 -20.8274 55.0349 25 -1 6 -20.8274 55.0349 TC 25 4 252
1996093S16074 1996 29 SI MM HANSELLA 1996-04-10 18:00:00 TS -20.9000 54.8000 main 47 47 O___________O_ jtwc_sh SH241996 -20.9000 54.8000 25 -1 -20.9000 54.8000 TC 25 5 247
1996093S16074 1996 29 SI MM HANSELLA 1996-04-10 21:00:00 TS -21.0192 54.5517 main 63 63 P___________P_ SH241996 -21.0125 54.5499 25 -1 -21.0326 54.5551 TC 25 6 237
1996093S16074 1996 29 SI MM HANSELLA 1996-04-11 00:00:00 TS -21.2000 54.3000 main 93 93 O___________O_ jtwc_sh SH241996 -21.2000 54.3000 25 -1 -21.2000 54.3000 TC 25 7 226
1996093S16074 1996 29 SI MM HANSELLA 1996-04-11 03:00:00 NR -21.4751 54.0503 main 122 122 P_____________ SH241996 -21.4751 54.0503 25 -1 TC 8 218
1996093S16074 1996 29 SI MM HANSELLA 1996-04-11 06:00:00 NR -21.8000 53.8000 main 164 O_____________ jtwc_sh SH241996 -21.8000 53.8000 25 -1 8 215

About IBTrACS Database

This database is a web-friendly format of International Best Track Archive for Climate Stewardship (IBTrACS), a global best track data archive curated by NOAA dating back to 1842.

Updated: 2021-10-25